sensor_id;sensor_type;location;lat;lon;timestamp;P1;durP1;ratioP1;P2;durP2;ratioP2
23185;SDS011;11761;51.324;4.590;2022-07-03T00:01:46;5.47;;;2.92;;
23185;SDS011;11761;51.324;4.590;2022-07-03T00:04:12;3.70;;;2.83;;
23185;SDS011;11761;51.324;4.590;2022-07-03T00:06:38;6.18;;;2.70;;
23185;SDS011;11761;51.324;4.590;2022-07-03T00:09:05;9.55;;;2.97;;
23185;SDS011;11761;51.324;4.590;2022-07-03T00:11:32;3.72;;;3.00;;
23185;SDS011;11761;51.324;4.590;2022-07-03T00:13:59;4.90;;;3.20;;
23185;SDS011;11761;51.324;4.590;2022-07-03T00:16:26;5.28;;;3.30;;
23185;SDS011;11761;51.324;4.590;2022-07-03T00:18:52;3.85;;;3.10;;
23185;SDS011;11761;51.324;4.590;2022-07-03T00:21:25;4.65;;;2.95;;
23185;SDS011;11761;51.324;4.590;2022-07-03T00:24:07;4.53;;;3.03;;
23185;SDS011;11761;51.324;4.590;2022-07-03T00:26:37;3.72;;;2.85;;
23185;SDS011;11761;51.324;4.590;2022-07-03T00:29:04;5.82;;;2.80;;
23185;SDS011;11761;51.324;4.590;2022-07-03T00:31:32;4.82;;;2.80;;
23185;SDS011;11761;51.324;4.590;2022-07-03T00:33:59;4.78;;;3.35;;
23185;SDS011;11761;51.324;4.590;2022-07-03T00:36:29;4.63;;;3.20;;
23185;SDS011;11761;51.324;4.590;2022-07-03T00:39:00;3.95;;;2.70;;
23185;SDS011;11761;51.324;4.590;2022-07-03T00:41:28;3.75;;;2.67;;
23185;SDS011;11761;51.324;4.590;2022-07-03T00:43:59;3.13;;;2.83;;
23185;SDS011;11761;51.324;4.590;2022-07-03T00:46:27;4.38;;;2.70;;
23185;SDS011;11761;51.324;4.590;2022-07-03T00:48:54;5.13;;;2.88;;
23185;SDS011;11761;51.324;4.590;2022-07-03T00:51:22;3.70;;;2.80;;
23185;SDS011;11761;51.324;4.590;2022-07-03T00:53:55;3.10;;;2.50;;
23185;SDS011;11761;51.324;4.590;2022-07-03T00:56:24;6.30;;;2.88;;
23185;SDS011;11761;51.324;4.590;2022-07-03T00:58:52;8.15;;;3.38;;
23185;SDS011;11761;51.324;4.590;2022-07-03T01:01:20;5.10;;;2.78;;
23185;SDS011;11761;51.324;4.590;2022-07-03T01:03:53;4.78;;;2.90;;
23185;SDS011;11761;51.324;4.590;2022-07-03T01:06:49;6.38;;;3.08;;
23185;SDS011;11761;51.324;4.590;2022-07-03T01:09:52;5.55;;;3.35;;
23185;SDS011;11761;51.324;4.590;2022-07-03T01:12:23;5.07;;;3.65;;
23185;SDS011;11761;51.324;4.590;2022-07-03T01:15:05;5.40;;;3.15;;
23185;SDS011;11761;51.324;4.590;2022-07-03T01:17:42;4.30;;;2.97;;
23185;SDS011;11761;51.324;4.590;2022-07-03T01:20:19;3.47;;;3.10;;
23185;SDS011;11761;51.324;4.590;2022-07-03T01:22:49;5.03;;;3.30;;
23185;SDS011;11761;51.324;4.590;2022-07-03T01:25:27;4.35;;;3.30;;
23185;SDS011;11761;51.324;4.590;2022-07-03T01:28:13;5.80;;;3.17;;
23185;SDS011;11761;51.324;4.590;2022-07-03T01:30:49;6.65;;;3.58;;
23185;SDS011;11761;51.324;4.590;2022-07-03T01:33:21;5.65;;;3.40;;
23185;SDS011;11761;51.324;4.590;2022-07-03T01:35:58;5.25;;;3.28;;
23185;SDS011;11761;51.324;4.590;2022-07-03T01:38:27;6.85;;;3.10;;
23185;SDS011;11761;51.324;4.590;2022-07-03T01:40:55;4.63;;;3.03;;
23185;SDS011;11761;51.324;4.590;2022-07-03T01:43:25;4.57;;;3.13;;
23185;SDS011;11761;51.324;4.590;2022-07-03T01:46:03;6.93;;;3.10;;
23185;SDS011;11761;51.324;4.590;2022-07-03T01:48:32;4.53;;;2.90;;
23185;SDS011;11761;51.324;4.590;2022-07-03T01:50:59;6.55;;;2.97;;
23185;SDS011;11761;51.324;4.590;2022-07-03T01:53:27;5.05;;;3.08;;
23185;SDS011;11761;51.324;4.590;2022-07-03T01:55:55;5.03;;;2.97;;
23185;SDS011;11761;51.324;4.590;2022-07-03T01:58:31;5.68;;;3.33;;
23185;SDS011;11761;51.324;4.590;2022-07-03T02:01:12;6.03;;;2.92;;
23185;SDS011;11761;51.324;4.590;2022-07-03T02:03:39;6.78;;;3.10;;
23185;SDS011;11761;51.324;4.590;2022-07-03T02:06:14;4.20;;;2.78;;
23185;SDS011;11761;51.324;4.590;2022-07-03T02:09:08;6.95;;;3.20;;
23185;SDS011;11761;51.324;4.590;2022-07-03T02:11:37;4.38;;;2.90;;
23185;SDS011;11761;51.324;4.590;2022-07-03T02:17:05;4.05;;;2.80;;
23185;SDS011;11761;51.324;4.590;2022-07-03T02:22:17;5.72;;;2.88;;
23185;SDS011;11761;51.324;4.590;2022-07-03T02:24:53;4.43;;;2.95;;
23185;SDS011;11761;51.324;4.590;2022-07-03T02:27:56;6.20;;;3.08;;
23185;SDS011;11761;51.324;4.590;2022-07-03T02:32:54;4.30;;;2.50;;
23185;SDS011;11761;51.324;4.590;2022-07-03T02:35:28;4.47;;;2.67;;
23185;SDS011;11761;51.324;4.590;2022-07-03T02:40:43;4.53;;;2.85;;
23185;SDS011;11761;51.324;4.590;2022-07-03T02:49:02;6.55;;;2.33;;
23185;SDS011;11761;51.324;4.590;2022-07-03T02:51:46;4.43;;;2.60;;
23185;SDS011;11761;51.324;4.590;2022-07-03T02:54:19;7.22;;;2.40;;
23185;SDS011;11761;51.324;4.590;2022-07-03T03:02:32;3.20;;;2.58;;
23185;SDS011;11761;51.324;4.590;2022-07-03T03:10:37;6.28;;;2.50;;
23185;SDS011;11761;51.324;4.590;2022-07-03T03:13:05;5.80;;;2.38;;
23185;SDS011;11761;51.324;4.590;2022-07-03T03:15:37;4.75;;;2.22;;
23185;SDS011;11761;51.324;4.590;2022-07-03T03:18:10;5.30;;;2.30;;
23185;SDS011;11761;51.324;4.590;2022-07-03T03:20:38;5.38;;;2.70;;
23185;SDS011;11761;51.324;4.590;2022-07-03T03:23:21;5.00;;;2.20;;
23185;SDS011;11761;51.324;4.590;2022-07-03T03:25:53;4.95;;;2.13;;
23185;SDS011;11761;51.324;4.590;2022-07-03T03:28:19;4.97;;;2.35;;
23185;SDS011;11761;51.324;4.590;2022-07-03T03:30:46;4.82;;;2.33;;
23185;SDS011;11761;51.324;4.590;2022-07-03T03:33:14;4.03;;;2.22;;
23185;SDS011;11761;51.324;4.590;2022-07-03T03:35:41;5.78;;;2.45;;
23185;SDS011;11761;51.324;4.590;2022-07-03T03:38:08;5.75;;;2.85;;
23185;SDS011;11761;51.324;4.590;2022-07-03T03:40:34;4.30;;;2.58;;
23185;SDS011;11761;51.324;4.590;2022-07-03T03:43:01;5.00;;;2.80;;
23185;SDS011;11761;51.324;4.590;2022-07-03T03:45:28;5.43;;;2.47;;
23185;SDS011;11761;51.324;4.590;2022-07-03T03:47:55;2.70;;;2.08;;
23185;SDS011;11761;51.324;4.590;2022-07-03T03:50:21;4.70;;;2.50;;
23185;SDS011;11761;51.324;4.590;2022-07-03T03:52:48;4.35;;;2.45;;
23185;SDS011;11761;51.324;4.590;2022-07-03T03:55:14;5.80;;;2.47;;
23185;SDS011;11761;51.324;4.590;2022-07-03T03:57:41;5.25;;;2.45;;
23185;SDS011;11761;51.324;4.590;2022-07-03T04:00:07;7.53;;;2.60;;
23185;SDS011;11761;51.324;4.590;2022-07-03T04:02:33;4.50;;;2.35;;
23185;SDS011;11761;51.324;4.590;2022-07-03T04:05:00;4.68;;;2.33;;
23185;SDS011;11761;51.324;4.590;2022-07-03T04:07:26;8.65;;;2.58;;
23185;SDS011;11761;51.324;4.590;2022-07-03T04:09:52;6.35;;;2.25;;
23185;SDS011;11761;51.324;4.590;2022-07-03T04:12:19;5.05;;;2.38;;
23185;SDS011;11761;51.324;4.590;2022-07-03T04:14:45;5.57;;;2.22;;
23185;SDS011;11761;51.324;4.590;2022-07-03T04:17:11;3.30;;;2.17;;
23185;SDS011;11761;51.324;4.590;2022-07-03T04:19:37;5.57;;;2.40;;
23185;SDS011;11761;51.324;4.590;2022-07-03T04:22:04;5.68;;;2.60;;
23185;SDS011;11761;51.324;4.590;2022-07-03T04:24:35;4.85;;;2.60;;
23185;SDS011;11761;51.324;4.590;2022-07-03T04:27:01;6.95;;;2.70;;
23185;SDS011;11761;51.324;4.590;2022-07-03T04:29:28;4.90;;;2.70;;
23185;SDS011;11761;51.324;4.590;2022-07-03T04:31:54;4.30;;;2.70;;
23185;SDS011;11761;51.324;4.590;2022-07-03T04:34:20;4.35;;;2.75;;
23185;SDS011;11761;51.324;4.590;2022-07-03T04:36:47;4.00;;;2.70;;
23185;SDS011;11761;51.324;4.590;2022-07-03T04:39:13;5.30;;;2.90;;
23185;SDS011;11761;51.324;4.590;2022-07-03T04:41:39;5.68;;;3.03;;
23185;SDS011;11761;51.324;4.590;2022-07-03T04:44:05;5.38;;;3.00;;
23185;SDS011;11761;51.324;4.590;2022-07-03T04:46:31;4.88;;;3.10;;
23185;SDS011;11761;51.324;4.590;2022-07-03T04:48:58;4.60;;;3.25;;
23185;SDS011;11761;51.324;4.590;2022-07-03T04:51:24;7.40;;;3.03;;
23185;SDS011;11761;51.324;4.590;2022-07-03T04:53:50;5.95;;;3.05;;
23185;SDS011;11761;51.324;4.590;2022-07-03T04:56:17;7.25;;;3.22;;
23185;SDS011;11761;51.324;4.590;2022-07-03T04:58:43;6.93;;;3.30;;
23185;SDS011;11761;51.324;4.590;2022-07-03T05:01:10;5.82;;;3.15;;
23185;SDS011;11761;51.324;4.590;2022-07-03T05:03:37;5.55;;;2.85;;
23185;SDS011;11761;51.324;4.590;2022-07-03T05:06:03;5.45;;;2.85;;
23185;SDS011;11761;51.324;4.590;2022-07-03T05:08:29;8.18;;;3.13;;
23185;SDS011;11761;51.324;4.590;2022-07-03T05:10:55;5.50;;;2.90;;
23185;SDS011;11761;51.324;4.590;2022-07-03T05:13:22;16.45;;;3.40;;
23185;SDS011;11761;51.324;4.590;2022-07-03T05:15:48;12.65;;;3.10;;
23185;SDS011;11761;51.324;4.590;2022-07-03T05:18:14;6.82;;;3.10;;
23185;SDS011;11761;51.324;4.590;2022-07-03T05:20:41;3.90;;;2.92;;
23185;SDS011;11761;51.324;4.590;2022-07-03T05:23:07;5.38;;;3.05;;
23185;SDS011;11761;51.324;4.590;2022-07-03T05:25:33;7.72;;;3.20;;
23185;SDS011;11761;51.324;4.590;2022-07-03T05:28:00;4.22;;;3.10;;
23185;SDS011;11761;51.324;4.590;2022-07-03T05:30:46;6.28;;;3.17;;
23185;SDS011;11761;51.324;4.590;2022-07-03T05:33:13;7.60;;;3.45;;
23185;SDS011;11761;51.324;4.590;2022-07-03T05:35:39;5.50;;;3.35;;
23185;SDS011;11761;51.324;4.590;2022-07-03T05:38:05;7.65;;;3.97;;
23185;SDS011;11761;51.324;4.590;2022-07-03T05:40:31;6.55;;;3.90;;
23185;SDS011;11761;51.324;4.590;2022-07-03T05:42:58;9.75;;;3.92;;
23185;SDS011;11761;51.324;4.590;2022-07-03T05:45:24;6.65;;;4.18;;
23185;SDS011;11761;51.324;4.590;2022-07-03T05:47:50;8.88;;;4.18;;
23185;SDS011;11761;51.324;4.590;2022-07-03T05:50:16;7.07;;;4.10;;
23185;SDS011;11761;51.324;4.590;2022-07-03T05:52:42;8.95;;;4.75;;
23185;SDS011;11761;51.324;4.590;2022-07-03T05:55:09;7.60;;;4.60;;
23185;SDS011;11761;51.324;4.590;2022-07-03T05:57:35;7.38;;;4.43;;
23185;SDS011;11761;51.324;4.590;2022-07-03T06:00:02;10.27;;;5.05;;
23185;SDS011;11761;51.324;4.590;2022-07-03T06:02:29;11.23;;;4.88;;
23185;SDS011;11761;51.324;4.590;2022-07-03T06:04:57;9.05;;;5.10;;
23185;SDS011;11761;51.324;4.590;2022-07-03T06:07:23;11.25;;;5.05;;
23185;SDS011;11761;51.324;4.590;2022-07-03T06:09:49;9.70;;;5.78;;
23185;SDS011;11761;51.324;4.590;2022-07-03T06:12:15;8.30;;;5.35;;
23185;SDS011;11761;51.324;4.590;2022-07-03T06:14:42;8.13;;;5.03;;
23185;SDS011;11761;51.324;4.590;2022-07-03T06:17:08;8.52;;;5.13;;
23185;SDS011;11761;51.324;4.590;2022-07-03T06:19:34;7.13;;;5.00;;
23185;SDS011;11761;51.324;4.590;2022-07-03T06:22:00;7.43;;;4.90;;
23185;SDS011;11761;51.324;4.590;2022-07-03T06:24:29;7.82;;;4.60;;
23185;SDS011;11761;51.324;4.590;2022-07-03T06:26:55;5.25;;;3.83;;
23185;SDS011;11761;51.324;4.590;2022-07-03T06:29:22;8.55;;;4.75;;
23185;SDS011;11761;51.324;4.590;2022-07-03T06:31:48;9.02;;;4.50;;
23185;SDS011;11761;51.324;4.590;2022-07-03T06:34:14;6.90;;;3.95;;
23185;SDS011;11761;51.324;4.590;2022-07-03T06:36:40;6.57;;;3.67;;
23185;SDS011;11761;51.324;4.590;2022-07-03T06:39:07;6.82;;;2.75;;
23185;SDS011;11761;51.324;4.590;2022-07-03T06:41:33;5.05;;;3.13;;
23185;SDS011;11761;51.324;4.590;2022-07-03T06:43:59;4.10;;;3.00;;
23185;SDS011;11761;51.324;4.590;2022-07-03T06:46:25;6.47;;;3.05;;
23185;SDS011;11761;51.324;4.590;2022-07-03T06:48:51;4.80;;;3.00;;
23185;SDS011;11761;51.324;4.590;2022-07-03T06:51:18;4.38;;;2.78;;
23185;SDS011;11761;51.324;4.590;2022-07-03T06:53:44;4.90;;;2.60;;
23185;SDS011;11761;51.324;4.590;2022-07-03T06:56:10;5.53;;;2.80;;
23185;SDS011;11761;51.324;4.590;2022-07-03T06:58:36;5.75;;;2.80;;
23185;SDS011;11761;51.324;4.590;2022-07-03T07:01:02;7.15;;;2.97;;
23185;SDS011;11761;51.324;4.590;2022-07-03T07:03:29;5.60;;;2.20;;
23185;SDS011;11761;51.324;4.590;2022-07-03T07:05:55;5.13;;;1.95;;
23185;SDS011;11761;51.324;4.590;2022-07-03T07:08:21;5.35;;;1.90;;
23185;SDS011;11761;51.324;4.590;2022-07-03T07:10:47;6.18;;;2.17;;
23185;SDS011;11761;51.324;4.590;2022-07-03T07:13:14;4.93;;;2.58;;
23185;SDS011;11761;51.324;4.590;2022-07-03T07:15:40;5.97;;;2.70;;
23185;SDS011;11761;51.324;4.590;2022-07-03T07:18:06;4.55;;;2.28;;
23185;SDS011;11761;51.324;4.590;2022-07-03T07:20:32;4.57;;;2.95;;
23185;SDS011;11761;51.324;4.590;2022-07-03T07:22:59;5.30;;;2.90;;
23185;SDS011;11761;51.324;4.590;2022-07-03T07:25:25;7.72;;;4.57;;
23185;SDS011;11761;51.324;4.590;2022-07-03T07:27:51;11.00;;;4.65;;
23185;SDS011;11761;51.324;4.590;2022-07-03T07:30:17;9.52;;;4.60;;
23185;SDS011;11761;51.324;4.590;2022-07-03T07:32:43;7.90;;;5.10;;
23185;SDS011;11761;51.324;4.590;2022-07-03T07:35:10;8.50;;;5.25;;
23185;SDS011;11761;51.324;4.590;2022-07-03T07:37:36;9.68;;;7.28;;
23185;SDS011;11761;51.324;4.590;2022-07-03T07:40:03;9.23;;;6.72;;
23185;SDS011;11761;51.324;4.590;2022-07-03T07:42:29;11.20;;;7.30;;
23185;SDS011;11761;51.324;4.590;2022-07-03T07:44:55;12.15;;;7.15;;
23185;SDS011;11761;51.324;4.590;2022-07-03T07:47:22;14.18;;;10.38;;
23185;SDS011;11761;51.324;4.590;2022-07-03T07:49:48;10.88;;;8.35;;
23185;SDS011;11761;51.324;4.590;2022-07-03T07:52:15;11.73;;;7.20;;
23185;SDS011;11761;51.324;4.590;2022-07-03T07:54:41;11.57;;;8.07;;
23185;SDS011;11761;51.324;4.590;2022-07-03T07:57:07;10.27;;;6.60;;
23185;SDS011;11761;51.324;4.590;2022-07-03T07:59:33;8.68;;;6.82;;
23185;SDS011;11761;51.324;4.590;2022-07-03T08:01:59;10.43;;;7.20;;
23185;SDS011;11761;51.324;4.590;2022-07-03T08:04:44;9.00;;;6.65;;
23185;SDS011;11761;51.324;4.590;2022-07-03T08:07:29;9.93;;;5.90;;
23185;SDS011;11761;51.324;4.590;2022-07-03T08:09:55;8.95;;;4.80;;
23185;SDS011;11761;51.324;4.590;2022-07-03T08:12:22;13.05;;;7.88;;
23185;SDS011;11761;51.324;4.590;2022-07-03T08:14:48;11.10;;;7.15;;
23185;SDS011;11761;51.324;4.590;2022-07-03T08:17:14;10.68;;;7.75;;
23185;SDS011;11761;51.324;4.590;2022-07-03T08:19:40;12.85;;;7.18;;
23185;SDS011;11761;51.324;4.590;2022-07-03T08:22:07;11.65;;;7.35;;
23185;SDS011;11761;51.324;4.590;2022-07-03T08:24:33;8.77;;;6.97;;
23185;SDS011;11761;51.324;4.590;2022-07-03T08:26:59;9.77;;;6.30;;
23185;SDS011;11761;51.324;4.590;2022-07-03T08:29:25;11.70;;;6.28;;
23185;SDS011;11761;51.324;4.590;2022-07-03T08:31:53;10.60;;;6.90;;
23185;SDS011;11761;51.324;4.590;2022-07-03T08:34:19;10.43;;;6.28;;
23185;SDS011;11761;51.324;4.590;2022-07-03T08:36:45;9.93;;;5.88;;
23185;SDS011;11761;51.324;4.590;2022-07-03T08:39:12;9.68;;;5.45;;
23185;SDS011;11761;51.324;4.590;2022-07-03T08:41:39;9.45;;;5.45;;
23185;SDS011;11761;51.324;4.590;2022-07-03T08:44:09;9.95;;;5.35;;
23185;SDS011;11761;51.324;4.590;2022-07-03T08:46:39;12.32;;;5.20;;
23185;SDS011;11761;51.324;4.590;2022-07-03T08:49:06;7.18;;;4.82;;
23185;SDS011;11761;51.324;4.590;2022-07-03T08:51:34;7.72;;;5.20;;
23185;SDS011;11761;51.324;4.590;2022-07-03T08:54:00;6.75;;;4.60;;
23185;SDS011;11761;51.324;4.590;2022-07-03T08:56:27;6.65;;;4.72;;
23185;SDS011;11761;51.324;4.590;2022-07-03T08:58:55;7.80;;;4.15;;
23185;SDS011;11761;51.324;4.590;2022-07-03T09:01:23;9.68;;;4.53;;
23185;SDS011;11761;51.324;4.590;2022-07-03T09:03:51;7.38;;;3.85;;
23185;SDS011;11761;51.324;4.590;2022-07-03T09:06:17;9.75;;;4.32;;
23185;SDS011;11761;51.324;4.590;2022-07-03T09:08:44;5.35;;;3.83;;
23185;SDS011;11761;51.324;4.590;2022-07-03T09:11:12;7.03;;;4.90;;
23185;SDS011;11761;51.324;4.590;2022-07-03T09:13:39;6.00;;;4.28;;
23185;SDS011;11761;51.324;4.590;2022-07-03T09:16:05;6.70;;;4.60;;
23185;SDS011;11761;51.324;4.590;2022-07-03T09:18:40;7.55;;;4.70;;
23185;SDS011;11761;51.324;4.590;2022-07-03T09:21:08;7.78;;;4.97;;
23185;SDS011;11761;51.324;4.590;2022-07-03T09:23:37;6.38;;;4.45;;
23185;SDS011;11761;51.324;4.590;2022-07-03T09:26:06;5.68;;;3.22;;
23185;SDS011;11761;51.324;4.590;2022-07-03T09:28:48;6.78;;;4.63;;
23185;SDS011;11761;51.324;4.590;2022-07-03T09:31:22;6.45;;;3.80;;
23185;SDS011;11761;51.324;4.590;2022-07-03T09:33:53;4.72;;;3.17;;
23185;SDS011;11761;51.324;4.590;2022-07-03T09:36:41;6.47;;;3.00;;
23185;SDS011;11761;51.324;4.590;2022-07-03T09:39:15;5.32;;;3.35;;
23185;SDS011;11761;51.324;4.590;2022-07-03T09:41:56;5.90;;;3.38;;
23185;SDS011;11761;51.324;4.590;2022-07-03T09:44:30;5.03;;;2.65;;
23185;SDS011;11761;51.324;4.590;2022-07-03T09:47:16;3.60;;;2.40;;
23185;SDS011;11761;51.324;4.590;2022-07-03T09:49:48;4.20;;;2.40;;
23185;SDS011;11761;51.324;4.590;2022-07-03T09:57:36;5.32;;;3.20;;
23185;SDS011;11761;51.324;4.590;2022-07-03T10:02:53;4.40;;;2.00;;
23185;SDS011;11761;51.324;4.590;2022-07-03T10:05:30;4.30;;;2.20;;
23185;SDS011;11761;51.324;4.590;2022-07-03T11:43:50;3.20;;;1.40;;
23185;SDS011;11761;51.324;4.590;2022-07-03T11:46:21;2.83;;;1.10;;
23185;SDS011;11761;51.324;4.590;2022-07-03T11:48:48;2.25;;;0.90;;
23185;SDS011;11761;51.324;4.590;2022-07-03T11:51:14;1.55;;;0.88;;
23185;SDS011;11761;51.324;4.590;2022-07-03T11:53:41;2.78;;;1.13;;
23185;SDS011;11761;51.324;4.590;2022-07-03T11:56:09;2.00;;;1.13;;
23185;SDS011;11761;51.324;4.590;2022-07-03T11:58:40;2.25;;;1.05;;
23185;SDS011;11761;51.324;4.590;2022-07-03T12:01:08;3.28;;;1.00;;
23185;SDS011;11761;51.324;4.590;2022-07-03T12:03:35;1.70;;;0.80;;
23185;SDS011;11761;51.324;4.590;2022-07-03T12:06:02;3.88;;;1.50;;
23185;SDS011;11761;51.324;4.590;2022-07-03T12:08:32;8.25;;;1.80;;
23185;SDS011;11761;51.324;4.590;2022-07-03T12:11:01;5.55;;;1.88;;
23185;SDS011;11761;51.324;4.590;2022-07-03T12:13:31;4.40;;;1.90;;
23185;SDS011;11761;51.324;4.590;2022-07-03T12:16:06;2.50;;;1.80;;
23185;SDS011;11761;51.324;4.590;2022-07-03T12:18:48;4.50;;;2.00;;
23185;SDS011;11761;51.324;4.590;2022-07-03T12:21:19;3.88;;;2.03;;
23185;SDS011;11761;51.324;4.590;2022-07-03T12:23:51;5.03;;;2.47;;
23185;SDS011;11761;51.324;4.590;2022-07-03T12:29:00;4.20;;;2.15;;
23185;SDS011;11761;51.324;4.590;2022-07-03T12:31:28;3.47;;;1.92;;
23185;SDS011;11761;51.324;4.590;2022-07-03T12:33:58;5.80;;;2.40;;
23185;SDS011;11761;51.324;4.590;2022-07-03T12:36:25;4.60;;;2.30;;
23185;SDS011;11761;51.324;4.590;2022-07-03T12:38:52;4.85;;;2.10;;
23185;SDS011;11761;51.324;4.590;2022-07-03T12:41:20;5.13;;;2.25;;
23185;SDS011;11761;51.324;4.590;2022-07-03T12:43:48;2.15;;;1.95;;
23185;SDS011;11761;51.324;4.590;2022-07-03T12:46:15;4.82;;;1.77;;
23185;SDS011;11761;51.324;4.590;2022-07-03T12:48:56;4.47;;;2.10;;
23185;SDS011;11761;51.324;4.590;2022-07-03T12:52:06;2.72;;;1.65;;
23185;SDS011;11761;51.324;4.590;2022-07-03T12:54:33;3.10;;;1.75;;
23185;SDS011;11761;51.324;4.590;2022-07-03T12:57:04;2.80;;;1.85;;
23185;SDS011;11761;51.324;4.590;2022-07-03T13:02:46;4.03;;;1.80;;
23185;SDS011;11761;51.324;4.590;2022-07-03T13:05:20;4.45;;;1.67;;
23185;SDS011;11761;51.324;4.590;2022-07-03T13:07:52;5.05;;;1.73;;
23185;SDS011;11761;51.324;4.590;2022-07-03T13:10:20;3.17;;;1.35;;
23185;SDS011;11761;51.324;4.590;2022-07-03T13:12:52;2.25;;;1.75;;
23185;SDS011;11761;51.324;4.590;2022-07-03T13:15:26;4.40;;;1.48;;
23185;SDS011;11761;51.324;4.590;2022-07-03T13:22:52;3.70;;;1.20;;
23185;SDS011;11761;51.324;4.590;2022-07-03T13:25:23;2.72;;;1.13;;
23185;SDS011;11761;51.324;4.590;2022-07-03T13:27:49;2.97;;;1.13;;
23185;SDS011;11761;51.324;4.590;2022-07-03T13:30:16;2.67;;;0.93;;
23185;SDS011;11761;51.324;4.590;2022-07-03T13:32:43;4.55;;;1.40;;
23185;SDS011;11761;51.324;4.590;2022-07-03T13:35:11;4.90;;;1.20;;
23185;SDS011;11761;51.324;4.590;2022-07-03T13:37:38;3.75;;;1.33;;
23185;SDS011;11761;51.324;4.590;2022-07-03T13:40:05;4.25;;;1.00;;
23185;SDS011;11761;51.324;4.590;2022-07-03T13:42:31;4.05;;;1.10;;
23185;SDS011;11761;51.324;4.590;2022-07-03T13:44:57;2.25;;;0.88;;
23185;SDS011;11761;51.324;4.590;2022-07-03T13:47:24;2.75;;;0.88;;
23185;SDS011;11761;51.324;4.590;2022-07-03T13:49:50;3.92;;;1.05;;
23185;SDS011;11761;51.324;4.590;2022-07-03T13:52:17;3.47;;;1.23;;
23185;SDS011;11761;51.324;4.590;2022-07-03T13:54:44;4.60;;;1.10;;
23185;SDS011;11761;51.324;4.590;2022-07-03T13:57:11;3.30;;;1.05;;
23185;SDS011;11761;51.324;4.590;2022-07-03T13:59:38;3.13;;;1.20;;
23185;SDS011;11761;51.324;4.590;2022-07-03T14:02:04;3.92;;;1.00;;
23185;SDS011;11761;51.324;4.590;2022-07-03T14:04:30;3.30;;;0.90;;
23185;SDS011;11761;51.324;4.590;2022-07-03T14:06:57;1.95;;;1.00;;
23185;SDS011;11761;51.324;4.590;2022-07-03T14:09:23;2.95;;;1.00;;
23185;SDS011;11761;51.324;4.590;2022-07-03T14:11:51;3.60;;;1.00;;
23185;SDS011;11761;51.324;4.590;2022-07-03T14:14:17;2.83;;;1.00;;
23185;SDS011;11761;51.324;4.590;2022-07-03T14:16:43;4.65;;;1.00;;
23185;SDS011;11761;51.324;4.590;2022-07-03T14:19:09;2.42;;;0.95;;
23185;SDS011;11761;51.324;4.590;2022-07-03T14:21:35;4.72;;;1.08;;
23185;SDS011;11761;51.324;4.590;2022-07-03T14:24:01;3.30;;;1.15;;
23185;SDS011;11761;51.324;4.590;2022-07-03T14:26:28;2.25;;;0.70;;
23185;SDS011;11761;51.324;4.590;2022-07-03T14:29:13;2.20;;;0.88;;
23185;SDS011;11761;51.324;4.590;2022-07-03T14:31:58;3.40;;;0.85;;
23185;SDS011;11761;51.324;4.590;2022-07-03T14:34:43;2.35;;;0.60;;
23185;SDS011;11761;51.324;4.590;2022-07-03T14:37:09;2.67;;;0.70;;
23185;SDS011;11761;51.324;4.590;2022-07-03T14:39:35;2.40;;;0.90;;
23185;SDS011;11761;51.324;4.590;2022-07-03T14:42:02;2.63;;;0.90;;
23185;SDS011;11761;51.324;4.590;2022-07-03T14:44:29;2.60;;;0.70;;
23185;SDS011;11761;51.324;4.590;2022-07-03T14:46:55;3.15;;;0.55;;
23185;SDS011;11761;51.324;4.590;2022-07-03T14:49:42;1.55;;;0.50;;
23185;SDS011;11761;51.324;4.590;2022-07-03T14:52:08;2.13;;;0.65;;
23185;SDS011;11761;51.324;4.590;2022-07-03T14:54:34;1.67;;;0.50;;
23185;SDS011;11761;51.324;4.590;2022-07-03T15:02:47;1.20;;;0.63;;
23185;SDS011;11761;51.324;4.590;2022-07-03T15:05:27;1.65;;;0.60;;
23185;SDS011;11761;51.324;4.590;2022-07-03T15:08:14;1.35;;;0.60;;
23185;SDS011;11761;51.324;4.590;2022-07-03T15:16:40;1.65;;;0.50;;
23185;SDS011;11761;51.324;4.590;2022-07-03T15:19:09;1.00;;;0.50;;
23185;SDS011;11761;51.324;4.590;2022-07-03T15:21:36;1.15;;;0.52;;
23185;SDS011;11761;51.324;4.590;2022-07-03T15:24:05;0.93;;;0.40;;
23185;SDS011;11761;51.324;4.590;2022-07-03T15:26:32;2.60;;;0.70;;
23185;SDS011;11761;51.324;4.590;2022-07-03T15:29:00;5.80;;;0.70;;
23185;SDS011;11761;51.324;4.590;2022-07-03T15:31:28;2.00;;;0.80;;
23185;SDS011;11761;51.324;4.590;2022-07-03T15:34:03;2.38;;;0.82;;
23185;SDS011;11761;51.324;4.590;2022-07-03T15:36:34;1.67;;;0.55;;
23185;SDS011;11761;51.324;4.590;2022-07-03T15:39:07;2.83;;;0.45;;
23185;SDS011;11761;51.324;4.590;2022-07-03T15:41:43;2.30;;;0.55;;
23185;SDS011;11761;51.324;4.590;2022-07-03T15:44:20;1.52;;;0.60;;
23185;SDS011;11761;51.324;4.590;2022-07-03T15:47:08;1.50;;;0.65;;
23185;SDS011;11761;51.324;4.590;2022-07-03T15:49:41;1.30;;;0.60;;
23185;SDS011;11761;51.324;4.590;2022-07-03T15:52:17;4.05;;;0.60;;
23185;SDS011;11761;51.324;4.590;2022-07-03T15:54:58;2.45;;;0.55;;
23185;SDS011;11761;51.324;4.590;2022-07-03T16:00:22;5.57;;;0.60;;
23185;SDS011;11761;51.324;4.590;2022-07-03T16:05:38;2.47;;;0.65;;
23185;SDS011;11761;51.324;4.590;2022-07-03T16:08:06;2.30;;;0.50;;
23185;SDS011;11761;51.324;4.590;2022-07-03T16:10:34;1.25;;;0.63;;
23185;SDS011;11761;51.324;4.590;2022-07-03T16:13:02;1.55;;;0.70;;
23185;SDS011;11761;51.324;4.590;2022-07-03T16:15:43;6.70;;;0.90;;
23185;SDS011;11761;51.324;4.590;2022-07-03T16:18:10;1.58;;;0.80;;
23185;SDS011;11761;51.324;4.590;2022-07-03T16:20:38;1.88;;;0.68;;
23185;SDS011;11761;51.324;4.590;2022-07-03T16:23:06;1.63;;;0.50;;
23185;SDS011;11761;51.324;4.590;2022-07-03T16:25:34;2.55;;;0.70;;
23185;SDS011;11761;51.324;4.590;2022-07-03T16:28:04;1.35;;;0.70;;
23185;SDS011;11761;51.324;4.590;2022-07-03T16:30:34;2.55;;;0.70;;
23185;SDS011;11761;51.324;4.590;2022-07-03T16:33:02;2.35;;;0.50;;
23185;SDS011;11761;51.324;4.590;2022-07-03T16:35:52;2.08;;;0.80;;
23185;SDS011;11761;51.324;4.590;2022-07-03T16:38:35;1.88;;;0.90;;
23185;SDS011;11761;51.324;4.590;2022-07-03T16:41:05;2.30;;;0.80;;
23185;SDS011;11761;51.324;4.590;2022-07-03T16:43:38;1.02;;;0.57;;
23185;SDS011;11761;51.324;4.590;2022-07-03T16:46:06;1.08;;;0.50;;
23185;SDS011;11761;51.324;4.590;2022-07-03T16:48:37;1.65;;;0.75;;
23185;SDS011;11761;51.324;4.590;2022-07-03T16:51:12;1.50;;;0.70;;
23185;SDS011;11761;51.324;4.590;2022-07-03T16:53:40;2.55;;;0.63;;
23185;SDS011;11761;51.324;4.590;2022-07-03T16:56:07;1.63;;;0.68;;
23185;SDS011;11761;51.324;4.590;2022-07-03T16:58:34;2.13;;;0.73;;
23185;SDS011;11761;51.324;4.590;2022-07-03T17:01:03;2.22;;;0.60;;
23185;SDS011;11761;51.324;4.590;2022-07-03T17:03:32;1.65;;;0.45;;
23185;SDS011;11761;51.324;4.590;2022-07-03T17:06:01;1.67;;;0.60;;
23185;SDS011;11761;51.324;4.590;2022-07-03T17:08:28;1.35;;;0.50;;
23185;SDS011;11761;51.324;4.590;2022-07-03T17:10:56;1.48;;;0.60;;
23185;SDS011;11761;51.324;4.590;2022-07-03T17:13:23;2.63;;;0.70;;
23185;SDS011;11761;51.324;4.590;2022-07-03T17:15:50;2.72;;;0.60;;
23185;SDS011;11761;51.324;4.590;2022-07-03T17:18:18;2.95;;;0.70;;
23185;SDS011;11761;51.324;4.590;2022-07-03T17:20:54;1.02;;;0.50;;
23185;SDS011;11761;51.324;4.590;2022-07-03T17:23:27;2.92;;;0.77;;
23185;SDS011;11761;51.324;4.590;2022-07-03T17:25:58;1.75;;;0.63;;
23185;SDS011;11761;51.324;4.590;2022-07-03T17:28:28;4.18;;;0.60;;
23185;SDS011;11761;51.324;4.590;2022-07-03T17:31:04;4.95;;;0.68;;
23185;SDS011;11761;51.324;4.590;2022-07-03T17:33:34;1.58;;;0.57;;
23185;SDS011;11761;51.324;4.590;2022-07-03T17:38:31;1.60;;;0.70;;
23185;SDS011;11761;51.324;4.590;2022-07-03T17:41:00;2.97;;;0.70;;
23185;SDS011;11761;51.324;4.590;2022-07-03T17:43:27;1.98;;;0.75;;
23185;SDS011;11761;51.324;4.590;2022-07-03T17:45:55;2.88;;;0.80;;